Terminal Aerodrome Forecast
Issued by NWS

Home | Current Version | Previous Version | Text Only | Print | Product List | Glossary On
Versions: 1 2 3 4 5 6 7 8 9 10 11 12 13 14
000
FTUS46 KSGX 021120
TAFSNA
TAF
KSNA 021120Z 0212/0312 VRB04KT P6SM FEW010 BKN150
     FM021800 22009KT P6SM SCT200
     FM030200 VRB04KT P6SM FEW010
     FM030800 VRB03KT 6SM BR BKN008=

USA.gov is the U.S. government's official web portal to all federal, state and local government web resources and services.